Terminal Aerodrome Forecast
Issued by NWS

Home | Current Version | Previous Version | Text Only | Print | Product List | Glossary On
Versions: 1 2 3 4 5 6 7 8 9 10 11 12 13 14 15 16 17 18
000
FTUS43 KABR 201120
TAFPIR
TAF
KPIR 201120Z 2012/2112 13011KT P6SM SCT250
     FM201600 17019G27KT P6SM BKN250
     FM210100 16012KT P6SM BKN250
     FM210300 17007KT P6SM FEW250 WS020/20040KT
     FM211000 31018G27KT P6SM BKN130=

USA.gov is the U.S. government's official web portal to all federal, state and local government web resources and services.